createdAt,value
2023-05-08T00:01:13.936Z,3.67
2023-05-08T00:04:16.385Z,3.55
2023-05-08T00:07:18.653Z,3.30
2023-05-08T00:10:20.844Z,3.50
2023-05-08T00:13:23.248Z,3.40
2023-05-08T00:16:25.557Z,3.15
2023-05-08T00:19:27.835Z,3.47
2023-05-08T00:22:30.027Z,3.63
2023-05-08T00:25:32.181Z,3.25
2023-05-08T00:28:34.361Z,3.20
2023-05-08T00:31:36.591Z,4.13
2023-05-08T00:34:38.869Z,3.65
2023-05-08T00:37:41.404Z,3.63
2023-05-08T00:40:43.626Z,3.67
2023-05-08T00:43:45.853Z,3.40
2023-05-08T00:46:48.280Z,3.42
2023-05-08T00:49:50.789Z,3.72
2023-05-08T00:52:53.279Z,3.63
2023-05-08T00:55:55.679Z,3.33
2023-05-08T00:58:58.117Z,3.83
2023-05-08T01:02:01.204Z,3.67
2023-05-08T01:05:03.926Z,3.78
2023-05-08T01:08:06.655Z,3.63
2023-05-08T01:11:08.816Z,3.70
2023-05-08T01:14:19.773Z,3.90
2023-05-08T01:17:33.316Z,3.92
2023-05-08T01:20:42.306Z,3.70
2023-05-08T01:23:47.675Z,3.63
2023-05-08T01:27:08.747Z,3.35
2023-05-08T01:30:26.316Z,3.43
2023-05-08T01:33:29.097Z,3.75
2023-05-08T01:36:31.566Z,3.78
2023-05-08T01:39:40.165Z,3.78
2023-05-08T01:42:50.766Z,3.33
2023-05-08T01:45:54.584Z,4.10
2023-05-08T01:49:00.637Z,4.13
2023-05-08T01:52:15.875Z,4.25
2023-05-08T01:55:21.389Z,3.65
2023-05-08T01:58:24.483Z,3.78
2023-05-08T02:01:29.242Z,3.90
2023-05-08T02:04:33.140Z,3.70
2023-05-08T02:07:38.259Z,4.03
2023-05-08T02:10:40.965Z,3.70
2023-05-08T02:13:44.660Z,3.38
2023-05-08T02:16:47.776Z,4.00
2023-05-08T02:19:51.162Z,3.95
2023-05-08T02:22:53.605Z,3.90
2023-05-08T02:25:56.032Z,3.53
2023-05-08T02:28:58.790Z,4.30
2023-05-08T02:32:02.158Z,4.20
2023-05-08T02:35:05.291Z,3.90
2023-05-08T02:38:10.872Z,3.90
2023-05-08T02:41:14.317Z,4.05
2023-05-08T02:44:17.162Z,4.10
2023-05-08T02:47:22.266Z,4.00
2023-05-08T02:50:29.439Z,4.20
2023-05-08T02:53:34.498Z,3.80
2023-05-08T02:56:55.744Z,4.38
2023-05-08T03:00:03.770Z,4.18
2023-05-08T03:03:13.646Z,4.23
2023-05-08T03:06:18.884Z,3.85
2023-05-08T03:09:23.218Z,3.85
2023-05-08T03:12:28.085Z,4.50
2023-05-08T03:15:34.189Z,4.20
2023-05-08T03:18:41.551Z,3.80
2023-05-08T03:21:44.352Z,3.65
2023-05-08T03:24:47.378Z,4.28
2023-05-08T03:27:50.501Z,3.85
2023-05-08T03:30:53.331Z,3.58
2023-05-08T03:33:56.721Z,3.83
2023-05-08T03:36:58.949Z,3.72
2023-05-08T03:40:01.220Z,3.80
2023-05-08T03:43:03.971Z,3.47
2023-05-08T03:46:09.301Z,3.63
2023-05-08T03:49:12.627Z,3.90
2023-05-08T03:52:15.711Z,3.40
2023-05-08T03:55:18.151Z,3.78
2023-05-08T03:58:31.514Z,4.15
2023-05-08T04:01:41.324Z,4.00
2023-05-08T04:04:47.708Z,3.30
2023-05-08T04:07:55.246Z,3.60
2023-05-08T04:11:00.659Z,3.70
2023-05-08T04:14:04.558Z,3.63
2023-05-08T04:17:08.396Z,3.90
2023-05-08T04:20:12.503Z,3.20
2023-05-08T04:23:17.279Z,3.13
2023-05-08T04:26:20.769Z,3.00
2023-05-08T04:29:24.768Z,2.97
2023-05-08T04:32:27.762Z,2.90
2023-05-08T04:35:30.558Z,2.70
2023-05-08T04:38:36.170Z,2.80
2023-05-08T04:41:38.767Z,2.97
2023-05-08T04:44:41.475Z,3.00
2023-05-08T04:47:43.830Z,2.78
2023-05-08T04:50:46.114Z,3.30
2023-05-08T04:53:48.653Z,2.85
2023-05-08T04:56:51.348Z,2.60
2023-05-08T04:59:53.698Z,2.92
2023-05-08T05:02:56.142Z,2.60
2023-05-08T05:05:59.545Z,2.43
2023-05-08T05:09:02.205Z,2.50
2023-05-08T05:12:05.047Z,2.47
2023-05-08T05:15:07.485Z,1.42
2023-05-08T05:18:11.809Z,1.70
2023-05-08T05:21:14.559Z,1.60
2023-05-08T05:24:16.956Z,1.30
2023-05-08T05:27:21.198Z,1.30
2023-05-08T05:30:23.793Z,1.40
2023-05-08T05:33:26.145Z,1.55
2023-05-08T05:36:29.412Z,1.23
2023-05-08T05:39:33.548Z,1.40
2023-05-08T05:42:35.848Z,1.85
2023-05-08T05:45:40.385Z,1.40
2023-05-08T05:48:47.211Z,1.27
2023-05-08T05:51:56.540Z,1.00
2023-05-08T05:55:11.050Z,1.27
2023-05-08T05:58:18.476Z,1.00
2023-05-08T06:01:25.452Z,0.80
2023-05-08T06:04:30.661Z,0.98
2023-05-08T06:07:36.118Z,1.00
2023-05-08T06:10:39.631Z,1.00
2023-05-08T06:13:44.486Z,0.90
2023-05-08T06:16:48.696Z,0.82
2023-05-08T06:19:54.300Z,0.85
2023-05-08T06:22:59.985Z,0.90
2023-05-08T06:26:02.478Z,0.80
2023-05-08T06:29:06.682Z,0.85
2023-05-08T06:32:08.924Z,0.95
2023-05-08T06:35:12.536Z,0.85
2023-05-08T06:38:15.556Z,0.90
2023-05-08T06:41:17.852Z,1.00
2023-05-08T06:44:20.176Z,0.80
2023-05-08T06:47:22.987Z,0.95
2023-05-08T06:50:26.096Z,0.90
2023-05-08T06:53:30.485Z,1.00
2023-05-08T06:56:33.499Z,1.00
2023-05-08T06:59:35.729Z,1.00
2023-05-08T07:02:38.112Z,1.00
2023-05-08T07:05:40.500Z,0.90
2023-05-08T07:08:42.802Z,1.13
2023-05-08T07:11:45.118Z,1.30
2023-05-08T07:14:47.504Z,1.20
2023-05-08T07:17:50.879Z,1.40
2023-05-08T07:20:53.299Z,1.30
2023-05-08T07:23:55.561Z,1.13
2023-05-08T07:26:59.681Z,1.45
2023-05-08T07:30:04.440Z,1.25
2023-05-08T07:33:07.927Z,1.58
2023-05-08T07:36:10.180Z,1.35
2023-05-08T07:39:12.507Z,1.70
2023-05-08T07:42:14.671Z,1.45
2023-05-08T07:45:17.030Z,1.30
2023-05-08T07:48:20.070Z,1.48
2023-05-08T07:51:22.375Z,1.40
2023-05-08T07:54:24.945Z,1.40
2023-05-08T07:57:27.572Z,1.30
2023-05-08T08:00:30.052Z,1.30
2023-05-08T08:03:32.555Z,1.27
2023-05-08T08:06:34.813Z,1.00
2023-05-08T08:09:37.067Z,1.37
2023-05-08T08:12:39.457Z,1.30
2023-05-08T08:15:42.078Z,0.95
2023-05-08T08:18:44.336Z,1.27
2023-05-08T08:21:47.190Z,1.30
2023-05-08T08:24:49.497Z,1.30
2023-05-08T08:27:51.841Z,1.35
2023-05-08T08:30:54.198Z,1.25
2023-05-08T08:33:57.583Z,1.00
2023-05-08T08:36:59.841Z,0.95
2023-05-08T08:40:02.301Z,1.10
2023-05-08T08:43:04.596Z,1.00
2023-05-08T08:46:10.725Z,1.02
2023-05-08T08:49:13.868Z,0.90
2023-05-08T08:52:22.791Z,0.90
2023-05-08T08:55:26.476Z,1.00
2023-05-08T08:58:33.815Z,0.90
2023-05-08T09:01:38.908Z,0.80
2023-05-08T09:04:41.369Z,0.80
2023-05-08T09:07:44.005Z,0.50
2023-05-08T09:10:46.680Z,0.67
2023-05-08T09:13:49.076Z,0.60
2023-05-08T09:16:51.379Z,0.68
2023-05-08T09:19:53.834Z,0.60
2023-05-08T09:22:56.512Z,0.50
2023-05-08T09:25:58.772Z,0.40
2023-05-08T09:29:13.778Z,0.30
2023-05-08T09:32:18.627Z,0.30
2023-05-08T09:35:21.568Z,0.32
2023-05-08T09:38:33.723Z,0.32
2023-05-08T09:41:36.399Z,0.40
2023-05-08T09:44:52.584Z,0.30
2023-05-08T09:47:55.371Z,0.40
2023-05-08T09:51:05.946Z,0.40
2023-05-08T09:54:19.794Z,0.30
2023-05-08T09:57:22.764Z,0.40
2023-05-08T10:00:28.993Z,0.40
2023-05-08T10:03:48.001Z,0.30
2023-05-08T10:06:59.630Z,0.40
2023-05-08T10:10:06.344Z,0.70
2023-05-08T10:13:08.740Z,0.40
2023-05-08T10:16:16.845Z,0.40
2023-05-08T10:19:22.599Z,0.40
2023-05-08T10:22:25.578Z,0.50
2023-05-08T10:25:31.908Z,0.30
2023-05-08T10:28:42.632Z,0.40
2023-05-08T10:31:46.497Z,0.40
2023-05-08T10:35:03.515Z,0.47
2023-05-08T10:38:08.685Z,0.40
2023-05-08T10:41:11.232Z,0.47
2023-05-08T10:44:13.999Z,0.50
2023-05-08T10:47:34.890Z,0.30
2023-05-08T10:50:37.206Z,0.30
2023-05-08T10:53:51.840Z,0.43
2023-05-08T10:57:06.678Z,0.50
2023-05-08T11:00:09.265Z,0.30
2023-05-08T11:03:23.600Z,0.43
2023-05-08T11:06:42.843Z,0.28
2023-05-08T11:09:46.847Z,0.38
2023-05-08T11:12:50.682Z,0.40
2023-05-08T11:15:53.408Z,0.50
2023-05-08T11:19:14.662Z,0.43
2023-05-08T11:22:21.976Z,0.40
2023-05-08T11:25:41.404Z,0.40
2023-05-08T11:28:53.820Z,0.40
2023-05-08T11:31:59.427Z,0.40
2023-05-08T11:35:02.037Z,0.40
2023-05-08T11:38:17.330Z,0.60
2023-05-08T11:41:24.166Z,0.50
2023-05-08T11:44:28.076Z,0.40
2023-05-08T11:47:41.472Z,0.40
2023-05-08T11:50:44.284Z,0.60
2023-05-08T11:53:47.543Z,0.60
2023-05-08T11:56:50.783Z,0.40
2023-05-08T11:59:53.069Z,0.45
2023-05-08T12:02:55.570Z,0.60
2023-05-08T12:05:59.152Z,0.50
2023-05-08T12:09:02.057Z,0.50
2023-05-08T12:12:04.534Z,0.50
2023-05-08T12:15:14.223Z,0.93
2023-05-08T12:18:17.228Z,0.50
2023-05-08T12:21:21.690Z,0.55
2023-05-08T12:24:26.278Z,0.47
2023-05-08T12:27:29.299Z,0.40
2023-05-08T12:30:31.776Z,0.73
2023-05-08T12:33:34.198Z,0.50
2023-05-08T12:36:37.237Z,0.45
2023-05-08T12:39:44.441Z,0.47
2023-05-08T12:42:50.086Z,0.50
2023-05-08T12:45:55.300Z,0.50
2023-05-08T12:49:02.043Z,0.40
2023-05-08T12:52:09.503Z,0.60
2023-05-08T12:55:25.476Z,0.50
2023-05-08T12:58:29.073Z,0.40
2023-05-08T13:01:32.145Z,0.40
2023-05-08T13:04:37.099Z,0.43
2023-05-08T13:07:39.617Z,0.50
2023-05-08T13:10:49.623Z,0.57
2023-05-08T13:13:51.926Z,0.52
2023-05-08T13:16:54.280Z,0.40
2023-05-08T13:19:56.693Z,0.50
2023-05-08T13:22:59.076Z,0.50
2023-05-08T13:26:01.370Z,0.55
2023-05-08T13:29:03.818Z,0.60
2023-05-08T13:32:06.246Z,0.57
2023-05-08T13:35:08.587Z,0.70
2023-05-08T13:38:10.938Z,0.50
2023-05-08T13:41:13.320Z,0.50
2023-05-08T13:44:15.641Z,0.73
2023-05-08T13:47:17.964Z,0.70
2023-05-08T13:50:21.891Z,0.67
2023-05-08T13:53:24.499Z,0.77
2023-05-08T13:56:26.868Z,0.70
2023-05-08T13:59:31.246Z,0.80
2023-05-08T14:02:33.634Z,0.40
2023-05-08T14:05:35.940Z,0.50
2023-05-08T14:08:45.156Z,0.70
2023-05-08T14:11:48.204Z,0.70
2023-05-08T14:14:50.616Z,0.70
2023-05-08T14:17:53.044Z,0.65
2023-05-08T14:20:57.225Z,0.60
2023-05-08T14:23:59.976Z,0.70
2023-05-08T14:27:05.974Z,0.63
2023-05-08T14:30:08.661Z,0.50
2023-05-08T14:33:11.031Z,0.60
2023-05-08T14:36:13.350Z,0.60
2023-05-08T14:39:15.672Z,0.75
2023-05-08T14:42:23.422Z,0.70
2023-05-08T14:45:26.220Z,0.70
2023-05-08T14:48:28.462Z,0.70
2023-05-08T14:51:31.295Z,0.70
2023-05-08T14:54:33.701Z,0.70
2023-05-08T14:57:36.341Z,0.70
2023-05-08T15:00:39.352Z,0.80
2023-05-08T15:03:41.792Z,0.82
2023-05-08T15:06:44.203Z,0.80
2023-05-08T15:09:46.595Z,0.80
2023-05-08T15:12:48.882Z,0.90
2023-05-08T15:15:51.332Z,0.98
2023-05-08T15:18:53.674Z,0.70
2023-05-08T15:21:55.959Z,0.90
2023-05-08T15:25:02.532Z,1.10
2023-05-08T15:28:05.750Z,1.10
2023-05-08T15:31:08.172Z,1.00
2023-05-08T15:34:10.587Z,0.90
2023-05-08T15:37:12.900Z,0.90
2023-05-08T15:40:15.162Z,1.13
2023-05-08T15:43:17.556Z,0.98
2023-05-08T15:46:19.740Z,1.10
2023-05-08T15:49:25.922Z,1.10
2023-05-08T15:52:28.208Z,0.80
2023-05-08T15:55:30.523Z,1.13
2023-05-08T15:58:32.780Z,0.90
2023-05-08T16:01:35.108Z,0.90
2023-05-08T16:04:37.429Z,1.30
2023-05-08T16:07:39.769Z,0.80
2023-05-08T16:10:42.267Z,1.20
2023-05-08T16:13:44.982Z,1.00
2023-05-08T16:16:47.303Z,1.10
2023-05-08T16:19:49.758Z,1.40
2023-05-08T16:22:55.939Z,1.30
2023-05-08T16:25:58.277Z,1.20
2023-05-08T16:29:00.645Z,1.23
2023-05-08T16:32:02.988Z,1.10
2023-05-08T16:35:05.811Z,1.08
2023-05-08T16:38:09.322Z,1.07
2023-05-08T16:41:12.879Z,1.50
2023-05-08T16:44:15.185Z,1.33
2023-05-08T16:47:17.469Z,1.38
2023-05-08T16:50:19.765Z,1.10
2023-05-08T16:53:22.061Z,1.43
2023-05-08T16:56:24.763Z,1.50
2023-05-08T16:59:27.028Z,1.58
2023-05-08T17:02:29.610Z,1.45
2023-05-08T17:05:32.073Z,1.30
2023-05-08T17:08:34.379Z,1.40
2023-05-08T17:11:36.648Z,1.20
2023-05-08T17:14:40.565Z,1.40
2023-05-08T17:17:43.120Z,1.50
2023-05-08T17:20:45.526Z,1.20
2023-05-08T17:23:47.808Z,1.50
2023-05-08T17:26:50.052Z,1.52
2023-05-08T17:29:52.370Z,1.40
2023-05-08T17:32:54.724Z,1.35
2023-05-08T17:35:57.090Z,1.40
2023-05-08T17:38:59.348Z,1.40
2023-05-08T17:42:01.726Z,1.42
2023-05-08T17:45:04.971Z,1.92
2023-05-08T17:48:07.316Z,1.70
2023-05-08T17:51:13.276Z,1.80
2023-05-08T17:54:15.874Z,1.90
2023-05-08T17:57:18.147Z,1.83
2023-05-08T18:00:20.431Z,1.92
2023-05-08T18:03:23.052Z,2.22
2023-05-08T18:06:25.585Z,1.73
2023-05-08T18:09:28.329Z,1.50
2023-05-08T18:12:32.034Z,1.90
2023-05-08T18:15:36.247Z,1.90
2023-05-08T18:18:38.674Z,1.95
2023-05-08T18:21:40.948Z,1.80
2023-05-08T18:24:43.347Z,2.00
2023-05-08T18:27:48.641Z,2.00
2023-05-08T18:30:51.299Z,2.30
2023-05-08T18:33:53.567Z,2.53
2023-05-08T18:36:57.526Z,2.00
2023-05-08T18:40:00.387Z,1.73
2023-05-08T18:43:02.722Z,2.10
2023-05-08T18:46:08.859Z,2.38
2023-05-08T18:49:11.262Z,2.30
2023-05-08T18:52:14.595Z,2.13
2023-05-08T18:55:17.067Z,2.10
2023-05-08T18:58:19.366Z,2.00
2023-05-08T19:01:21.964Z,2.42
2023-05-08T19:04:24.326Z,2.33
2023-05-08T19:07:26.662Z,2.10
2023-05-08T19:10:29.080Z,1.73
2023-05-08T19:13:32.002Z,2.20
2023-05-08T19:16:34.381Z,1.90
2023-05-08T19:19:36.695Z,1.70
2023-05-08T19:22:38.906Z,2.10
2023-05-08T19:25:41.261Z,2.20
2023-05-08T19:28:43.624Z,1.85
2023-05-08T19:31:46.306Z,2.22
2023-05-08T19:34:48.637Z,2.22
2023-05-08T19:37:50.936Z,1.90
2023-05-08T19:40:57.166Z,1.77
2023-05-08T19:44:00.393Z,2.17
2023-05-08T19:47:04.165Z,1.88
2023-05-08T19:50:07.377Z,1.75
2023-05-08T19:53:09.742Z,2.03
2023-05-08T19:56:12.191Z,1.90
2023-05-08T19:59:14.372Z,1.83
2023-05-08T20:02:16.724Z,1.83
2023-05-08T20:05:23.087Z,1.55
2023-05-08T20:08:25.708Z,2.17
2023-05-08T20:11:28.074Z,1.67
2023-05-08T20:14:30.315Z,1.80
2023-05-08T20:17:32.707Z,1.85
2023-05-08T20:20:35.089Z,1.98
2023-05-08T20:23:39.083Z,2.45
2023-05-08T20:26:41.521Z,2.20
2023-05-08T20:29:43.905Z,1.95
2023-05-08T20:32:46.510Z,1.77
2023-05-08T20:35:48.885Z,2.35
2023-05-08T20:38:51.488Z,2.20
2023-05-08T20:41:53.717Z,2.07
2023-05-08T20:44:56.011Z,2.10
2023-05-08T20:47:58.455Z,1.95
2023-05-08T20:51:01.044Z,2.20
2023-05-08T20:54:03.442Z,2.33
2023-05-08T20:57:05.674Z,1.90
2023-05-08T21:00:08.404Z,2.40
2023-05-08T21:03:10.836Z,2.08
2023-05-08T21:06:13.553Z,2.05
2023-05-08T21:09:16.422Z,1.83
2023-05-08T21:12:18.605Z,2.50
2023-05-08T21:15:20.877Z,1.70
2023-05-08T21:18:23.255Z,2.30
2023-05-08T21:21:25.438Z,2.10
2023-05-08T21:24:27.791Z,2.10
2023-05-08T21:27:31.038Z,2.57
2023-05-08T21:30:33.296Z,2.45
2023-05-08T21:33:35.702Z,2.20
2023-05-08T21:36:37.873Z,2.20
2023-05-08T21:39:40.849Z,2.33
2023-05-08T21:42:43.127Z,2.40
2023-05-08T21:45:45.336Z,2.28
2023-05-08T21:48:47.883Z,2.40
2023-05-08T21:51:50.313Z,2.28
2023-05-08T21:54:52.917Z,2.03
2023-05-08T21:57:55.176Z,2.07
2023-05-08T22:00:58.641Z,2.20
2023-05-08T22:04:01.440Z,2.30
2023-05-08T22:07:03.857Z,2.30
2023-05-08T22:10:06.621Z,2.15
2023-05-08T22:13:08.931Z,2.13
2023-05-08T22:16:11.228Z,2.55
2023-05-08T22:19:13.558Z,2.30
2023-05-08T22:22:15.875Z,2.45
2023-05-08T22:25:18.216Z,2.50
2023-05-08T22:28:20.599Z,3.73
2023-05-08T22:31:22.967Z,3.95
2023-05-08T22:34:25.344Z,2.67
2023-05-08T22:37:27.633Z,4.68
2023-05-08T22:40:30.003Z,4.95
2023-05-08T22:43:32.480Z,5.57
2023-05-08T22:46:35.143Z,4.15
2023-05-08T22:49:39.042Z,3.20
2023-05-08T22:52:41.264Z,2.83
2023-05-08T22:55:43.643Z,2.78
2023-05-08T22:58:45.981Z,3.80
2023-05-08T23:01:48.258Z,4.70
2023-05-08T23:04:50.600Z,5.10
2023-05-08T23:07:52.931Z,3.83
2023-05-08T23:10:55.433Z,4.38
2023-05-08T23:13:57.706Z,3.70
2023-05-08T23:16:59.987Z,4.38
2023-05-08T23:20:02.576Z,4.20
2023-05-08T23:23:04.906Z,3.72
2023-05-08T23:26:07.214Z,3.90
2023-05-08T23:29:09.479Z,3.13
2023-05-08T23:32:12.389Z,3.17
2023-05-08T23:35:14.775Z,2.95
2023-05-08T23:38:17.613Z,2.45
2023-05-08T23:41:19.825Z,2.03
2023-05-08T23:44:22.108Z,2.70
2023-05-08T23:47:24.573Z,2.38
2023-05-08T23:50:27.111Z,3.03
2023-05-08T23:53:29.386Z,2.92
2023-05-08T23:56:31.659Z,2.97
2023-05-08T23:59:33.919Z,2.60
